Data for 08/04/2014

Time Sea-Level Adjusted Pressure Absolute Pressure Temperature Relative Humidity Dew Point   
(mb) (inHg) (mb) (inHg) (C) (F) (%) (C) (F)
00:05 1022 30.18 851 25.13 18.6 65.6 40 4.8 40.6
00:10 1022 30.18 851 25.13 18.4 65.2 40 4.8 40.6
00:15 1022 30.18 851 25.13 18.4 65.1 42 5.4 41.7
00:20 1022 30.18 851 25.13 18.3 65 41 4.8 40.7
00:25 1022 30.18 851 25.13 18.2 64.8 41 4.8 40.7
00:30 1022 30.18 851 25.13 18.2 64.7 42 5.1 41.2
00:35 1022 30.18 851 25.13 18.1 64.6 42 5 41
00:40 1022 30.18 851 25.13 18.4 65.1 41 5 41
00:45 1021 30.15 851 25.13 18.3 65 41 4.8 40.7
00:50 1021 30.15 851 25.13 18.6 65.5 39 4.6 40.3
00:55 1021 30.15 851 25.13 18.7 65.6 41 5.4 41.7
01:00 1021 30.15 851 25.13 18.2 64.8 43 5.5 41.9
01:05 1022 30.18 851 25.13 18.1 64.6 42 5.2 41.4
01:10 1022 30.18 851 25.13 18 64.4 44 5.7 42.3
01:15 1022 30.18 851 25.13 17.8 64.1 42 4.9 40.9
01:20 1022 30.18 851 25.13 18.1 64.6 40 4.5 40.1
01:25 1022 30.18 851 25.13 18.2 64.8 42 5.3 41.5
01:30 1022 30.18 851 25.13 17.7 63.9 44 5.3 41.5
01:35 1022 30.18 851 25.13 17.7 63.8 42 4.6 40.2
01:40 1022 30.18 851 25.13 17.5 63.6 44 5.3 41.6
01:45 1022 30.18 851 25.13 17.1 62.9 48 6.1 42.9
01:50 1022 30.18 851 25.13 17.8 64 44 5.5 41.9
01:55 1022 30.18 851 25.13 17.7 63.9 44 5.5 41.9
02:00 1022 30.18 851 25.13 17.5 63.5 45 5.5 41.8
02:05 1022 30.18 851 25.13 17.8 64 45 5.8 42.5
02:10 1022 30.18 851 25.13 17.9 64.2 45 6 42.8
02:15 1022 30.18 851 25.13 18.8 65.8 43 6.2 43.1
02:20 1022 30.18 851 25.13 19.4 66.9 43 6.6 43.8
02:25 1022 30.18 851 25.13 19.5 67 43 6.7 44
02:30 1022 30.18 851 25.13 19.4 66.9 43 6.7 44.1
02:35 1022 30.18 851 25.13 19.2 66.6 44 6.9 44.5
02:40 1022 30.18 851 25.13 19.2 66.5 45 7.2 44.9
02:45 1022 30.18 851 25.13 19.1 66.4 46 7.2 45
02:50 1022 30.18 851 25.13 19.1 66.4 47 7.5 45.6
02:55 1022 30.18 851 25.13 19.1 66.4 47 7.7 45.8
03:00 1022 30.18 851 25.13 19 66.3 48 8 46.3
03:05 1022 30.18 851 25.13 18.9 66.1 49 8.2 46.8
03:10 1022 30.18 851 25.13 18.8 65.9 50 8.3 47
03:15 1022 30.18 851 25.13 18.8 65.8 51 8.4 47.2
03:20 1022 30.18 851 25.13 18.7 65.7 51 8.5 47.4
03:25 1022 30.18 851 25.13 18.6 65.5 51 8.5 47.3
03:30 1022 30.18 851 25.13 18.4 65.1 52 8.6 47.4
03:35 1022 30.18 851 25.13 18.3 64.9 53 8.8 47.8
03:40 1022 30.18 851 25.13 18.1 64.6 54 8.7 47.7
03:45 1022 30.18 851 25.13 18 64.4 54 8.7 47.7
03:50 1022 30.18 851 25.13 17.9 64.2 55 8.7 47.7
03:55 1022 30.18 851 25.13 17.7 63.9 55 8.6 47.5
04:00 1022 30.18 851 25.13 17.6 63.7 56 8.8 47.8
04:05 1022 30.18 851 25.13 17.4 63.4 56 8.7 47.6
04:10 1022 30.18 851 25.13 17.3 63.2 56 8.7 47.6
04:15 1022 30.18 851 25.13 17.2 63 57 8.7 47.6
04:20 1022 30.18 851 25.13 17.1 62.8 58 8.8 47.9
04:25 1022 30.18 851 25.13 17.1 62.7 58 8.8 47.8
04:30 1022 30.18 851 25.13 17.1 62.8 59 9 48.2
04:35 1022 30.18 851 25.13 17 62.6 59 9 48.2
04:40 1022 30.18 851 25.13 17 62.7 59 9.1 48.4
04:45 1022 30.18 851 25.13 17.1 62.7 59 9.2 48.6
04:50 1022 30.18 851 25.13 17.1 62.8 60 9.3 48.7
04:55 1022 30.18 851 25.13 17.1 62.7 60 9.4 49
05:00 1022 30.18 851 25.13 17.1 62.7 61 9.5 49.2
05:05 1022 30.18 851 25.13 17 62.6 61 9.6 49.2
05:10 1022 30.18 851 25.13 17 62.6 62 9.7 49.5
05:15 1022 30.18 851 25.13 16.9 62.5 63 9.8 49.6
05:20 1022 30.18 852 25.16 16.9 62.4 63 9.8 49.7
05:25 1022 30.18 852 25.16 16.9 62.3 63 9.9 49.8
05:30 1022 30.18 852 25.16 16.9 62.4 63 10 49.9
05:35 1022 30.18 852 25.16 16.9 62.4 64 10.1 50.1
05:40 1022 30.18 852 25.16 16.9 62.4 64 10.1 50.2
05:45 1022 30.18 852 25.16 16.9 62.4 64 10.2 50.3
05:50 1022 30.18 852 25.16 16.9 62.4 64 10.2 50.4
05:55 1022 30.18 852 25.16 16.9 62.4 65 10.3 50.6
06:00 1023 30.21 852 25.16 16.9 62.5 64 10.2 50.4
06:05 1023 30.21 852 25.16 17 62.7 63 10.1 50.2
06:10 1023 30.21 852 25.16 17.2 62.9 64 10.3 50.5
06:15 1023 30.21 852 25.16 17.1 62.9 64 10.4 50.7
06:20 1023 30.21 852 25.16 17.1 62.8 64 10.3 50.6
06:25 1023 30.21 852 25.16 17.1 62.9 65 10.5 51
06:30 1023 30.21 852 25.16 17.1 62.7 65 10.5 50.8
06:35 1023 30.21 852 25.16 16.9 62.5 65 10.5 50.9
06:40 1023 30.21 852 25.16 17 62.6 65 10.5 50.9
06:45 1023 30.21 852 25.16 17.1 62.7 65 10.6 51.1
06:50 1023 30.21 852 25.16 17.1 62.7 65 10.5 51
06:55 1023 30.21 852 25.16 17.1 62.9 65 10.5 50.9
07:00 1023 30.21 852 25.16 17.2 63 64 10.5 51
07:05 1023 30.21 852 25.16 17.3 63.1 64 10.5 51
07:10 1023 30.21 852 25.16 17.3 63.2 64 10.5 50.8
07:15 1023 30.21 852 25.16 17.5 63.5 63 10.4 50.7
07:20 1023 30.21 852 25.16 17.8 64.1 61 10.3 50.6
07:25 1023 30.21 852 25.16 18 64.4 60 10.3 50.6
07:30 1023 30.21 852 25.16 18.2 64.7 60 10.3 50.5
07:35 1023 30.21 852 25.16 18.5 65.3 58 10.2 50.3
07:40 1023 30.21 852 25.16 19 66.2 56 10.2 50.3
07:45 1023 30.21 852 25.16 19.3 66.8 55 10.2 50.4
07:50 1023 30.21 852 25.16 19.4 66.9 55 10.3 50.5
07:55 1023 30.21 852 25.16 19.4 66.9 56 10.4 50.8
08:00 1023 30.21 852 25.16 19.7 67.4 55 10.4 50.8
08:05 1023 30.21 852 25.16 19.8 67.7 55 10.6 51
08:10 1023 30.21 852 25.16 19.5 67.1 56 10.7 51.3
08:15 1023 30.21 852 25.16 19.7 67.4 56 10.7 51.3
08:20 1023 30.21 852 25.16 19.8 67.7 55 10.7 51.2
08:25 1023 30.21 852 25.16 19.8 67.6 56 10.9 51.6
08:30 1023 30.21 852 25.16 19.7 67.5 56 10.8 51.5
08:35 1023 30.21 852 25.16 19.5 67.1 57 10.7 51.3
08:40 1023 30.21 852 25.16 19.5 67 57 10.7 51.3
08:45 1023 30.21 852 25.16 19.8 67.6 54 10.4 50.8
08:50 1022 30.18 852 25.16 20 68.1 53 10.3 50.6
08:55 1022 30.18 852 25.16 20.2 68.3 54 10.7 51.3
09:00 1022 30.18 852 25.16 20.3 68.5 53 10.6 51
09:05 1022 30.18 852 25.16 20.3 68.5 53 10.4 50.8
09:10 1022 30.18 852 25.16 20.2 68.4 53 10.4 50.7
09:15 1023 30.21 852 25.16 20.2 68.3 53 10.4 50.7
09:20 1023 30.21 852 25.16 20.2 68.4 53 10.6 51.1
09:25 1023 30.21 852 25.16 20.3 68.6 53 10.5 51
09:30 1023 30.21 852 25.16 20.4 68.7 52 10.3 50.6
09:35 1023 30.21 852 25.16 20.6 69 52 10.4 50.7
09:40 1023 30.21 852 25.16 20.7 69.2 50 10 49.9
09:45 1023 30.21 852 25.16 20.7 69.3 48 9.6 49.3
09:50 1023 30.21 852 25.16 21 69.8 48 9.7 49.4
09:55 1023 30.21 852 25.16 21.1 70 48 9.7 49.5
10:00 1023 30.21 852 25.16 21 69.8 46 9.2 48.6
10:05 1023 30.21 852 25.16 20.9 69.6 45 8.7 47.6
10:10 1023 30.21 852 25.16 20.9 69.5 48 9.5 49
10:15 1023 30.21 852 25.16 21.1 69.9 47 9.5 49.1
10:20 1023 30.21 852 25.16 21 69.9 48 9.6 49.3
10:25 1023 30.21 852 25.16 21.2 70.1 47 9.6 49.2
10:30 1023 30.21 852 25.16 21.3 70.3 46 9.2 48.6
10:35 1022 30.18 852 25.16 21.4 70.5 46 9.4 49
10:40 1022 30.18 852 25.16 21 69.8 47 9.5 49
10:45 1022 30.18 852 25.16 20.9 69.6 48 9.6 49.2
10:50 1022 30.18 852 25.16 20.9 69.5 48 9.7 49.5
10:55 1022 30.18 852 25.16 21.2 70.1 47 9.6 49.3
11:00 1022 30.18 852 25.16 21.2 70.2 46 9.4 48.9
11:05 1022 30.18 852 25.16 21.3 70.3 47 9.6 49.2
11:10 1022 30.18 851 25.13 21.4 70.4 47 9.8 49.6
11:15 1022 30.18 852 25.16 21.3 70.3 45 9.2 48.5
11:20 1022 30.18 852 25.16 21.2 70.2 46 9.2 48.5
11:25 1022 30.18 852 25.16 21.4 70.6 46 9.4 48.9
11:30 1022 30.18 852 25.16 21.7 71 46 9.7 49.4
11:35 1022 30.18 852 25.16 21.7 71.1 44 9.2 48.6
11:40 1022 30.18 852 25.16 21.9 71.5 46 9.9 49.8
11:45 1022 30.18 852 25.16 21.6 70.9 47 9.9 49.9
11:50 1022 30.18 852 25.16 21.8 71.3 45 9.5 49.1
11:55 1022 30.18 852 25.16 22.2 71.9 44 9.6 49.3
12:00 1022 30.18 851 25.13 22.1 71.9 45 9.8 49.7
12:05 1022 30.18 851 25.13 22.7 72.8 43 9.5 49.2
12:10 1022 30.18 851 25.13 22.4 72.4 44 9.8 49.6
12:15 1022 30.18 852 25.16 23 73.4 40 9 48.2
12:20 1022 30.18 851 25.13 23.3 74 39 8.9 48.1
12:25 1022 30.18 851 25.13 23 73.4 39 8.5 47.3
12:30 1022 30.18 851 25.13 23.3 73.9 38 8.5 47.3
12:35 1022 30.18 851 25.13 23.7 74.7 36 8 46.3
12:40 1022 30.18 851 25.13 23.9 75.1 36 8.1 46.5
12:45 1022 30.18 851 25.13 23.7 74.7 36 7.9 46.2
12:50 1022 30.18 851 25.13 23.9 74.9 37 8.3 47
12:55 1022 30.18 851 25.13 23.9 75.1 36 8 46.5
13:00 1022 30.18 852 25.16 23.9 75 37 8.6 47.4
13:05 1022 30.18 852 25.16 23.4 74.2 38 8.6 47.4
13:10 1022 30.18 852 25.16 23.3 73.9 41 9.4 49
13:15 1022 30.18 852 25.16 23.4 74.2 37 8 46.4
13:20 1022 30.18 852 25.16 23.6 74.5 38 8.5 47.4
13:25 1022 30.18 852 25.16 23.7 74.6 36 7.9 46.3
13:30 1022 30.18 852 25.16 23.6 74.5 42 10.2 50.4
13:35 1022 30.18 852 25.16 23 73.4 44 10.2 50.4
13:40 1022 30.18 852 25.16 23 73.3 44 10.2 50.3
13:45 1022 30.18 852 25.16 23 73.4 44 10.1 50.2
13:50 1022 30.18 852 25.16 23.3 73.9 43 10.1 50.2
13:55 1022 30.18 852 25.16 23 73.4 43 10 50.1
14:00 1022 30.18 852 25.16 22.9 73.2 44 10.1 50.2
14:05 1022 30.18 852 25.16 22.8 73.1 46 10.6 51.2
14:10 1022 30.18 852 25.16 22.9 73.2 44 10.3 50.6
14:15 1022 30.18 852 25.16 22.9 73.2 45 10.4 50.8
14:20 1022 30.18 852 25.16 22.8 73.1 46 10.7 51.2
14:25 1022 30.18 852 25.16 23 73.4 44 10.3 50.5
14:30 1023 30.21 852 25.16 22.7 72.8 43 9.6 49.2
14:35 1023 30.21 852 25.16 22.5 72.4 45 10.1 50.2
14:40 1023 30.21 852 25.16 22.3 72.2 45 10.1 50.1
14:45 1023 30.21 852 25.16 22.3 72.1 46 10.4 50.7
14:50 1023 30.21 852 25.16 22.1 71.8 47 10.3 50.5
14:55 1022 30.18 852 25.16 22 71.6 49 10.9 51.6
15:00 1022 30.18 852 25.16 21.6 70.9 51 11.2 52.2
15:05 1022 30.18 852 25.16 20.8 69.4 55 11.6 52.9
15:10 1022 30.18 852 25.16 20.1 68.1 56 11.1 52
15:15 1022 30.18 852 25.16 20 67.9 57 11.2 52.2
15:20 1022 30.18 852 25.16 20 67.9 56 10.9 51.7
15:25 1022 30.18 852 25.16 20.1 68.2 57 11.5 52.7
15:30 1022 30.18 851 25.13 20.2 68.4 55 10.9 51.7
15:35 1022 30.18 851 25.13 20.1 68.2 55 10.9 51.6
15:40 1022 30.18 851 25.13 20.3 68.5 57 11.7 53.1
15:45 1022 30.18 851 25.13 20.6 69 56 11.6 52.9
15:50 1022 30.18 851 25.13 20.7 69.3 54 11.1 51.9
15:55 1022 30.18 851 25.13 20.9 69.5 54 11.2 52.2
16:00 1022 30.18 851 25.13 20.8 69.5 45 8.5 47.3
16:05 1022 30.18 851 25.13 20.8 69.4 45 8.7 47.7
16:10 1022 30.18 851 25.13 20.7 69.3 48 9.4 49
16:15 1022 30.18 851 25.13 20.6 69 45 8.3 47
16:20 1022 30.18 851 25.13 20.6 69 45 8.2 46.8
16:25 1022 30.18 851 25.13 20.5 69 45 8.2 46.7
16:30 1022 30.18 851 25.13 20.5 68.8 45 8.3 46.9
16:35 1022 30.18 851 25.13 20.4 68.8 46 8.6 47.5
16:40 1022 30.18 851 25.13 20.3 68.5 48 9.2 48.5
16:45 1022 30.18 851 25.13 20.2 68.3 46 8.3 47
16:50 1022 30.18 851 25.13 20.1 68.3 49 9.1 48.4
16:55 1022 30.18 851 25.13 20 68.1 47 8.5 47.3
17:00 1022 30.18 851 25.13 20 67.9 47 8.6 47.4
17:05 1022 30.18 851 25.13 19.9 67.8 48 8.8 47.8
17:10 1022 30.18 851 25.13 19.8 67.6 49 8.8 47.8
17:15 1022 30.18 851 25.13 19.8 67.6 50 9.1 48.3
17:20 1022 30.18 851 25.13 19.7 67.5 49 8.9 48.1
17:25 1022 30.18 851 25.13 19.6 67.4 48 8.6 47.4
17:30 1021 30.15 851 25.13 19.7 67.4 49 8.8 47.9
17:35 1021 30.15 851 25.13 19.7 67.4 48 8.6 47.6
17:40 1021 30.15 851 25.13 19.7 67.5 48 8.5 47.3
17:45 1021 30.15 851 25.13 19.7 67.5 49 8.8 47.9
17:50 1021 30.15 851 25.13 19.7 67.5 49 8.8 47.8
17:55 1021 30.15 851 25.13 19.7 67.4 49 8.7 47.6
18:00 1021 30.15 851 25.13 19.7 67.4 49 8.9 48
18:05 1021 30.15 851 25.13 19.6 67.3 50 9.2 48.5
18:10 1021 30.15 851 25.13 19.5 67.1 51 9.2 48.5
18:15 1022 30.18 851 25.13 19.5 67 51 9.2 48.5
18:20 1022 30.18 851 25.13 19.4 67 52 9.4 48.9
18:25 1022 30.18 851 25.13 19.4 66.9 52 9.3 48.8
18:30 1022 30.18 851 25.13 19.5 67 50 9 48.2
18:35 1022 30.18 851 25.13 19.5 67.1 51 9.1 48.5
18:40 1022 30.18 851 25.13 19.5 67 51 9.2 48.6
18:45 1022 30.18 851 25.13 19.4 67 50 8.8 47.8
18:50 1022 30.18 851 25.13 19.5 67 51 9.3 48.7
18:55 1022 30.18 851 25.13 19.2 66.6 53 9.5 49.2
19:00 1022 30.18 851 25.13 19 66.2 53 9.4 48.9
19:05 1022 30.18 851 25.13 19 66.1 54 9.6 49.3
19:10 1022 30.18 851 25.13 18.8 65.9 56 10.1 50.2
19:15 1022 30.18 851 25.13 18.6 65.5 58 10.3 50.6
19:20 1022 30.18 851 25.13 18.4 65.2 59 10.5 50.9
19:25 1022 30.18 851 25.13 18.3 64.9 60 10.5 51
19:30 1022 30.18 851 25.13 18.2 64.7 61 10.6 51.1
19:35 1022 30.18 851 25.13 18.1 64.6 61 10.6 51.1
19:40 1022 30.18 851 25.13 18 64.4 61 10.5 50.9
19:45 1022 30.18 851 25.13 18 64.3 62 10.7 51.3
19:50 1022 30.18 851 25.13 18.1 64.5 65 11.5 52.7
19:55 1022 30.18 851 25.13 17.9 64.1 63 10.8 51.5
20:00 1022 30.18 851 25.13 17.8 64 66 11.5 52.6
20:05 1022 30.18 851 25.13 17.6 63.7 64 10.8 51.5
20:10 1022 30.18 851 25.13 17.3 63.2 66 11 51.9
20:15 1022 30.18 851 25.13 17.1 62.8 66 10.9 51.7
20:20 1022 30.18 851 25.13 17 62.6 68 11 51.9
20:25 1022 30.18 851 25.13 16.9 62.4 69 11.1 52
20:30 1022 30.18 851 25.13 16.8 62.2 70 11.2 52.2
20:35 1022 30.18 851 25.13 16.7 62 71 11.4 52.4
20:40 1022 30.18 851 25.13 16.6 62 70 11.3 52.3
20:45 1022 30.18 851 25.13 16.6 61.9 70 11.1 52
20:50 1022 30.18 851 25.13 16.7 62 69 11 51.8
20:55 1022 30.18 851 25.13 16.8 62.2 71 11.6 52.8
21:00 1022 30.18 851 25.13 16.8 62.3 68 11 51.8
21:05 1022 30.18 851 25.13 16.8 62.3 67 10.8 51.4
21:10 1022 30.18 851 25.13 16.9 62.4 67 10.8 51.4
21:15 1022 30.18 851 25.13 17 62.6 66 10.7 51.3
21:20 1022 30.18 851 25.13 17.1 62.7 66 10.7 51.3
21:25 1022 30.18 851 25.13 17.1 62.8 65 10.6 51.1
21:30 1022 30.18 851 25.13 17.1 62.8 65 10.7 51.2
21:35 1022 30.18 851 25.13 17.2 62.9 64 10.4 50.7
21:40 1022 30.18 851 25.13 17.4 63.2 64 10.5 50.8
21:45 1022 30.18 851 25.13 17.4 63.2 64 10.6 51.1
21:50 1022 30.18 851 25.13 17.3 63.1 65 10.6 51.2
21:55 1022 30.18 851 25.13 17.2 63 66 10.8 51.4
22:00 1022 30.18 851 25.13 17.2 63 65 10.6 51.1
22:05 1022 30.18 851 25.13 17.2 63 65 10.7 51.2
22:10 1022 30.18 851 25.13 17.2 63 64 10.5 51
22:15 1022 30.18 851 25.13 17.3 63.1 64 10.5 50.9
22:20 1021 30.15 851 25.13 17.3 63.1 65 10.6 51.1
22:25 1021 30.15 851 25.13 17.2 62.9 66 10.7 51.3
22:30 1021 30.15 851 25.13 17.2 62.9 66 10.8 51.4
22:35 1021 30.15 851 25.13 17 62.6 68 11 51.9
22:40 1021 30.15 851 25.13 16.9 62.4 67 10.8 51.4
22:45 1021 30.15 851 25.13 16.9 62.5 68 11 51.8
22:50 1021 30.15 851 25.13 16.9 62.4 68 10.9 51.6
22:55 1021 30.15 851 25.13 16.9 62.5 66 10.6 51.1
23:00 1021 30.15 851 25.13 17 62.7 66 10.6 51.1
23:05 1021 30.15 851 25.13 17 62.7 66 10.7 51.3
23:10 1021 30.15 851 25.13 17 62.7 65 10.6 51
23:15 1021 30.15 851 25.13 17 62.6 66 10.6 51
23:20 1021 30.15 851 25.13 16.9 62.5 67 10.8 51.4
23:25 1021 30.15 851 25.13 16.7 62.1 67 10.7 51.3
23:30 1021 30.15 851 25.13 16.6 61.8 66 10.3 50.5
23:35 1021 30.15 851 25.13 16.6 61.9 65 10.1 50.2
23:40 1021 30.15 851 25.13 16.8 62.2 66 10.4 50.8
23:45 1021 30.15 851 25.13 16.7 62.1 67 10.7 51.3
23:50 1021 30.15 851 25.13 16.6 61.8 71 11.3 52.4
23:55 1021 30.15 851 25.13 16.1 60.9 77 12 53.7
24:00 1021 30.15 851 25.13 15.5 59.9 79 11.8 53.3